Terminal Aerodrome Forecast
Issued by NWS Cleveland, OH

Home | Current Version | Previous Version | Text Only | Print | Product List | Glossary Off
Versions: 1 2 3 4 5 6 7 8 9 10 11 12 13 14 15 16 17 18 19 20 21 22 23 24 25 26

115
FTUS41 KCLE 202235 AAA
TAFMFD
TAF AMD
KMFD 202235Z 2023/2118 22010KT P6SM BKN250
     FM210015 20008KT P6SM OVC015
     FM210600 20008KT 5SM BR OVC012
     FM210900 20008KT 3SM -DZ BR OVC008
     FM211400 20008KT 2SM -DZ BR OVC004=

USA.gov is the U.S. government's official web portal to all federal, state and local government web resources and services.